Time;durP1;ratioP1;P1;durP2;ratioP2;P2;SDS_P1;SDS_P2;PMS_P1;PMS_P2;Temp;Humidity;BMP_temperature;BMP_pressure;BME280_temperature;BME280_humidity;BME280_pressure;Samples;Min_cycle;Max_cycle;Signal;HPM_P1;HPM_P2
2023/04/16 00:01:31;;;;;;;;;20.20;15.80;;;;;8.75;80.05;100153.50;5096389;28;8826;-63
2023/04/16 00:03:58;;;;;;;;;16.40;12.80;;;;;8.75;79.96;100152.66;5095933;28;8818;-62
2023/04/16 00:06:27;;;;;;;;;11.40;11.40;;;;;8.75;80.13;100153.50;5096258;28;8830;-62
2023/04/16 00:08:55;;;;;;;;;12.20;12.00;;;;;8.73;80.11;100155.41;5096346;28;9523;-62
2023/04/16 00:11:22;;;;;;;;;9.60;8.20;;;;;8.72;80.15;100153.72;5096141;28;8935;-62
2023/04/16 00:13:51;;;;;;;;;6.40;4.00;;;;;8.73;80.22;100155.41;5096283;28;8822;-62
2023/04/16 00:16:19;;;;;;;;;15.60;12.60;;;;;8.73;79.67;100155.41;5096176;28;8837;-61
2023/04/16 00:18:47;;;;;;;;;15.00;12.60;;;;;8.73;80.16;100154.59;5095915;28;8868;-62
2023/04/16 00:21:14;;;;;;;;;13.80;12.00;;;;;8.72;79.99;100153.72;5095940;28;9456;-62
2023/04/16 00:23:42;;;;;;;;;15.40;12.60;;;;;8.73;80.34;100158.06;5095839;28;9516;-62
2023/04/16 00:26:10;;;;;;;;;13.40;12.00;;;;;8.75;80.31;100152.66;5095724;28;8826;-62
2023/04/16 00:28:38;;;;;;;;;15.60;15.00;;;;;8.74;80.34;100156.28;5095807;28;9488;-60
2023/04/16 00:31:05;;;;;;;;;9.00;6.20;;;;;8.74;80.63;100154.44;5095797;28;8823;-61
2023/04/16 00:33:33;;;;;;;;;9.20;9.00;;;;;8.73;80.54;100155.41;5095877;28;8940;-63
2023/04/16 00:36:01;;;;;;;;;16.60;15.00;;;;;8.73;80.36;100158.06;5095894;28;8802;-62
2023/04/16 00:38:31;;;;;;;;;11.40;8.40;;;;;8.72;80.74;100159.03;5096595;28;8814;-60
2023/04/16 00:40:59;;;;;;;;;12.60;12.00;;;;;8.72;80.72;100153.72;5095805;28;8814;-62
2023/04/16 00:43:26;;;;;;;;;14.00;11.20;;;;;8.72;80.42;100153.72;5096205;28;9464;-60
2023/04/16 00:45:54;;;;;;;;;13.80;13.00;;;;;8.70;80.40;100158.28;5095240;28;8814;-62
2023/04/16 00:48:22;;;;;;;;;11.80;10.20;;;;;8.70;80.65;100160.09;5095880;28;8861;-60
2023/04/16 00:50:50;;;;;;;;;15.60;14.20;;;;;8.70;80.57;100155.63;5095593;28;8826;-62
2023/04/16 00:53:18;;;;;;;;;23.00;19.00;;;;;8.70;80.43;100160.09;5095989;28;8822;-62
2023/04/16 00:55:46;;;;;;;;;15.00;12.60;;;;;8.69;80.67;100159.25;5095765;28;8825;-60
2023/04/16 00:58:13;;;;;;;;;16.00;12.80;;;;;8.69;80.13;100166.34;5095634;28;8823;-63
2023/04/16 01:00:41;;;;;;;;;14.60;12.80;;;;;8.67;80.45;100165.63;5099513;28;8818;-62
2023/04/16 01:03:09;;;;;;;;;12.80;12.00;;;;;8.67;80.39;100161.13;5099806;28;8930;-62
2023/04/16 01:05:37;;;;;;;;;12.80;11.00;;;;;8.65;80.24;100168.34;5099053;28;8837;-60
2023/04/16 01:08:05;;;;;;;;;16.20;13.80;;;;;8.65;80.46;100160.41;5099793;28;8822;-62
2023/04/16 01:10:32;;;;;;;;;13.40;12.60;;;;;8.65;80.03;100163.06;5099429;28;8841;-62
2023/04/16 01:13:00;;;;;;;;;17.40;16.20;;;;;8.65;79.94;100160.41;5099306;28;8807;-60
2023/04/16 01:15:28;;;;;;;;;11.80;9.80;;;;;8.65;80.22;100171.00;5099842;28;8902;-62
2023/04/16 01:17:56;;;;;;;;;21.20;16.00;;;;;8.65;79.98;100178.16;5099424;28;8822;-60
2023/04/16 01:20:24;;;;;;;;;17.20;15.40;;;;;8.64;80.07;100177.28;5099306;28;8834;-60
2023/04/16 01:22:52;;;;;;;;;7.40;6.40;;;;;8.63;80.14;100170.28;5099229;28;8845;-59
2023/04/16 01:25:19;;;;;;;;;17.80;16.00;;;;;8.63;80.43;100175.59;5099153;28;8829;-62
2023/04/16 01:27:47;;;;;;;;;13.80;11.80;;;;;8.62;80.12;100173.88;5099420;28;8906;-61
2023/04/16 01:30:15;;;;;;;;;18.60;15.60;;;;;8.63;80.07;100174.72;5098853;28;8842;-62
2023/04/16 01:32:43;;;;;;;;;15.80;12.40;;;;;8.61;79.90;100172.19;5099457;28;8846;-62
2023/04/16 01:35:10;;;;;;;;;17.40;13.40;;;;;8.60;79.76;100169.63;5099249;28;8818;-61
2023/04/16 01:37:38;;;;;;;;;15.40;12.20;;;;;8.60;80.15;100175.78;5099049;28;8842;-62
2023/04/16 01:40:06;;;;;;;;;11.00;8.20;;;;;8.60;79.99;100182.91;5099338;28;9517;-62
2023/04/16 01:42:34;;;;;;;;;16.00;13.00;;;;;8.59;80.11;100174.06;5099267;28;8926;-62
2023/04/16 01:45:05;;;;;;;;;12.00;10.00;;;;;8.61;80.27;100171.34;5099101;28;8834;-62
2023/04/16 01:47:32;;;;;;;;;18.00;15.80;;;;;8.60;79.82;100174.94;5098957;28;8834;-62
2023/04/16 01:50:00;;;;;;;;;17.40;16.80;;;;;8.60;79.78;100172.28;5098640;28;8814;-62
2023/04/16 01:52:28;;;;;;;;;28.40;23.60;;;;;8.61;80.10;100179.28;5098516;28;8810;-62
2023/04/16 01:54:56;;;;;;;;;17.20;14.80;;;;;8.61;80.39;100188.13;5098867;28;8838;-62
2023/04/16 01:57:23;;;;;;;;;18.80;17.60;;;;;8.60;79.97;100186.38;5098709;28;8806;-62
2023/04/16 01:59:51;;;;;;;;;15.60;12.60;;;;;8.62;79.89;100195.13;5098700;28;8862;-62
2023/04/16 02:02:19;;;;;;;;;25.80;21.80;;;;;8.61;79.87;100190.78;5098803;28;8834;-60
2023/04/16 02:04:47;;;;;;;;;23.80;19.40;;;;;8.62;79.90;100187.16;5098529;28;8798;-62
2023/04/16 02:07:15;;;;;;;;;24.00;19.00;;;;;8.63;80.13;100186.19;5098519;28;8833;-62
2023/04/16 02:09:43;;;;;;;;;20.80;17.40;;;;;8.62;80.24;100187.16;5098169;28;8818;-62
2023/04/16 02:12:11;;;;;;;;;25.40;20.20;;;;;8.64;79.54;100187.03;5097763;28;8857;-62
2023/04/16 02:14:38;;;;;;;;;26.60;22.40;;;;;8.65;79.69;100194.06;5098196;28;8845;-61
2023/04/16 02:17:06;;;;;;;;;21.40;18.60;;;;;8.67;79.98;100193.00;5098820;28;9534;-61
2023/04/16 02:19:34;;;;;;;;;24.00;21.20;;;;;8.67;79.92;100187.69;5098278;28;8810;-62
2023/04/16 02:22:02;;;;;;;;;18.00;14.20;;;;;8.66;79.74;100191.28;5098367;28;8849;-62
2023/04/16 02:24:30;;;;;;;;;18.40;16.60;;;;;8.66;79.98;100191.28;5098476;28;8814;-62
2023/04/16 02:26:59;;;;;;;;;22.60;18.00;;;;;8.68;79.67;100188.53;5098205;28;8856;-62
2023/04/16 02:29:27;;;;;;;;;15.40;15.40;;;;;8.69;79.90;100190.25;5097983;28;8834;-62
2023/04/16 02:31:54;;;;;;;;;18.20;16.80;;;;;8.69;79.60;100188.44;5098077;28;8830;-61
2023/04/16 02:34:22;;;;;;;;;18.00;15.60;;;;;8.69;79.40;100184.94;5097570;28;8829;-62
2023/04/16 02:36:50;;;;;;;;;8.40;6.80;;;;;8.67;79.90;100190.34;5097161;28;8794;-62
2023/04/16 02:39:18;;;;;;;;;23.00;17.40;;;;;8.65;79.97;100178.97;5097780;28;8834;-62
2023/04/16 02:41:46;;;;;;;;;16.40;15.20;;;;;8.65;79.99;100189.59;5097606;28;8822;-62
2023/04/16 02:44:14;;;;;;;;;14.20;13.20;;;;;8.63;79.93;100180.03;5098938;28;9467;-59
2023/04/16 02:46:42;;;;;;;;;15.00;13.20;;;;;8.63;79.43;100188.84;5097750;28;8825;-60
2023/04/16 02:49:10;;;;;;;;;7.40;5.20;;;;;8.63;80.00;100188.84;5097768;28;8806;-62
2023/04/16 02:51:38;;;;;;;;;14.20;12.60;;;;;8.63;79.55;100180.91;5097689;28;8832;-62
2023/04/16 02:54:06;;;;;;;;;18.40;16.00;;;;;8.63;80.12;100180.03;5097760;28;8818;-62
2023/04/16 02:56:33;;;;;;;;;12.00;11.00;;;;;8.64;79.97;100187.91;5097905;28;8814;-60
2023/04/16 02:59:01;;;;;;;;;14.20;12.20;;;;;8.64;80.08;100179.06;5097557;28;8879;-61
2023/04/16 03:01:28;;;;;;;;;19.00;12.40;;;;;8.62;79.95;100189.81;5097817;28;8907;-62
2023/04/16 03:03:56;;;;;;;;;9.25;7.50;;;;;8.64;80.01;100193.22;5097660;28;8825;-62
2023/04/16 03:06:25;;;;;;;;;20.20;15.60;;;;;8.65;80.04;100188.75;5097232;28;8841;-62
2023/04/16 03:08:52;;;;;;;;;16.00;13.40;;;;;8.64;79.79;100187.91;5097431;28;8919;-61
2023/04/16 03:11:20;;;;;;;;;12.80;11.60;;;;;8.64;79.91;100190.56;5097514;28;8826;-61
2023/04/16 03:13:48;;;;;;;;;16.60;13.40;;;;;8.65;79.93;100189.59;5097497;28;9504;-62
2023/04/16 03:16:16;;;;;;;;;20.20;14.80;;;;;8.66;79.47;100185.16;5097414;28;8802;-62
2023/04/16 03:18:43;;;;;;;;;17.20;16.60;;;;;8.67;80.13;100186.84;5097239;28;8822;-62
2023/04/16 03:21:11;;;;;;;;;19.40;16.40;;;;;8.67;79.76;100186.84;5096831;28;8806;-62
2023/04/16 03:23:39;;;;;;;;;14.60;12.60;;;;;8.67;79.73;100190.34;5096863;28;8825;-62
2023/04/16 03:26:06;;;;;;;;;19.80;16.00;;;;;8.68;80.08;100189.38;5096958;28;8837;-61
2023/04/16 03:28:34;;;;;;;;;16.60;13.40;;;;;8.68;80.21;100189.38;5096810;28;8810;-62
2023/04/16 03:31:02;;;;;;;;;24.20;20.20;;;;;8.72;79.73;100190.03;5097049;28;8829;-62
2023/04/16 03:33:30;;;;;;;;;24.40;20.80;;;;;8.72;79.71;100196.19;5096962;28;8822;-62
2023/04/16 03:35:57;;;;;;;;;22.00;16.80;;;;;8.75;79.60;100197.78;5096422;28;8826;-59
2023/04/16 03:38:25;;;;;;;;;19.80;18.60;;;;;8.76;80.12;100197.69;5096779;28;8857;-60
2023/04/16 03:40:53;;;;;;;;;14.60;13.00;;;;;8.77;79.80;100204.72;5096720;28;8818;-62
2023/04/16 03:43:21;;;;;;;;;15.80;14.60;;;;;8.78;79.89;100201.09;5097245;28;8856;-62
2023/04/16 03:45:48;;;;;;;;;25.00;20.00;;;;;8.79;79.84;100207.22;5096463;28;8826;-62
2023/04/16 03:48:16;;;;;;;;;18.80;14.60;;;;;8.79;79.90;100202.78;5096576;28;8842;-62
2023/04/16 03:50:43;;;;;;;;;21.20;20.20;;;;;8.80;80.07;100209.78;5096516;28;8818;-62
2023/04/16 03:53:11;;;;;;;;;20.40;18.20;;;;;8.83;79.83;100206.91;5096752;28;8814;-61
2023/04/16 03:55:39;;;;;;;;;21.00;20.20;;;;;8.83;79.87;100203.44;5096662;28;8837;-62
2023/04/16 03:58:07;;;;;;;;;27.00;23.60;;;;;8.82;80.11;100207.88;5096425;28;8818;-62
2023/04/16 04:00:35;;;;;;;;;27.00;25.00;;;;;8.83;80.16;100204.25;5096577;28;8834;-62
2023/04/16 04:03:02;;;;;;;;;20.60;19.40;;;;;8.83;79.80;100209.56;5096257;28;8806;-62
2023/04/16 04:05:30;;;;;;;;;18.40;17.20;;;;;8.85;79.59;100207.69;5096078;28;8925;-62
2023/04/16 04:07:58;;;;;;;;;18.40;16.60;;;;;8.86;80.07;100213.81;5096381;28;8822;-62
2023/04/16 04:10:26;;;;;;;;;19.80;16.80;;;;;8.87;80.12;100211.06;5096283;28;8854;-62
2023/04/16 04:12:54;;;;;;;;;23.20;21.00;;;;;8.88;79.70;100209.28;5096257;28;8841;-62
2023/04/16 04:15:21;;;;;;;;;16.20;14.20;;;;;8.89;79.91;100205.66;5096078;28;8834;-62
2023/04/16 04:17:50;;;;;;;;;17.00;12.80;;;;;8.88;79.86;100209.28;5096094;28;8825;-62
2023/04/16 04:20:18;;;;;;;;;26.20;22.20;;;;;8.88;80.15;100214.59;5096447;28;8826;-60
2023/04/16 04:22:46;;;;;;;;;14.00;14.00;;;;;8.88;80.47;100210.13;5096176;28;8842;-61
2023/04/16 04:25:13;;;;;;;;;27.60;21.60;;;;;8.86;80.20;100212.03;5096117;28;8903;-62
2023/04/16 04:27:41;;;;;;;;;21.00;18.60;;;;;8.88;79.76;100207.47;5096056;28;8910;-61
2023/04/16 04:30:08;;;;;;;;;25.60;21.40;;;;;8.87;80.12;100213.72;5096022;28;8823;-60
2023/04/16 04:32:36;;;;;;;;;24.80;18.60;;;;;8.88;79.89;100219.91;5096137;28;8869;-60
2023/04/16 04:35:04;;;;;;;;;20.40;18.20;;;;;8.88;79.40;100225.22;5095376;28;8849;-62
2023/04/16 04:37:31;;;;;;;;;17.80;12.00;;;;;8.87;79.93;100221.69;5095233;28;8932;-62
2023/04/16 04:40:00;;;;;;;;;18.40;16.40;;;;;8.88;80.46;100228.72;5096014;28;9487;-62
2023/04/16 04:42:27;;;;;;;;;21.20;18.20;;;;;8.90;79.95;100231.25;5096862;28;8825;-62
2023/04/16 04:44:55;;;;;;;;;23.00;21.80;;;;;8.92;79.87;100232.00;5096092;28;9519;-62
2023/04/16 04:47:22;;;;;;;;;23.40;21.80;;;;;8.91;80.22;100236.47;5095791;28;8890;-61
2023/04/16 04:49:50;;;;;;;;;20.80;18.60;;;;;8.93;79.56;100229.25;5095887;28;8829;-62
2023/04/16 04:52:19;;;;;;;;;21.40;19.80;;;;;8.93;79.93;100241.66;5095908;28;8833;-63
2023/04/16 04:54:47;;;;;;;;;18.40;16.40;;;;;8.93;79.98;100237.22;5096004;28;8873;-62
2023/04/16 04:57:15;;;;;;;;;23.60;18.80;;;;;8.93;80.01;100242.53;5096050;28;8834;-62
2023/04/16 04:59:42;;;;;;;;;16.80;15.60;;;;;8.93;80.22;100241.66;5095674;28;8834;-62
2023/04/16 05:02:10;;;;;;;;;21.20;19.80;;;;;8.93;79.78;100246.97;5095705;28;8822;-62
2023/04/16 05:04:38;;;;;;;;;27.40;23.40;;;;;8.94;79.68;100243.38;5095274;28;8822;-60
2023/04/16 05:07:06;;;;;;;;;29.00;26.20;;;;;8.95;79.98;100247.75;5095726;28;8944;-62
2023/04/16 05:09:33;;;;;;;;;25.20;22.40;;;;;8.96;79.44;100246.78;5095915;28;8883;-59
2023/04/16 05:12:01;;;;;;;;;27.60;22.00;;;;;8.97;80.04;100249.31;5096050;28;9746;-61
2023/04/16 05:14:29;;;;;;;;;39.40;27.20;;;;;9.00;79.78;100251.78;5095833;28;8810;-61
2023/04/16 05:16:56;;;;;;;;;27.00;22.40;;;;;9.01;80.23;100250.81;5095833;28;8965;-60
2023/04/16 05:19:24;;;;;;;;;22.00;17.60;;;;;9.01;79.34;100248.16;5095346;28;8826;-61
2023/04/16 05:21:52;;;;;;;;;23.40;16.00;;;;;9.02;79.61;100251.66;5095394;28;8833;-59
2023/04/16 05:24:20;;;;;;;;;23.00;18.00;;;;;9.02;79.97;100262.28;5095528;28;8895;-62
2023/04/16 05:26:48;;;;;;;;;28.00;25.00;;;;;9.03;79.78;100258.69;5095478;28;8830;-59
2023/04/16 05:29:15;;;;;;;;;15.80;15.00;;;;;9.03;80.24;100261.34;5095404;28;8861;-62
2023/04/16 05:31:43;;;;;;;;;27.20;24.40;;;;;9.03;80.02;100267.50;5095035;28;8919;-62
2023/04/16 05:34:11;;;;;;;;;25.60;22.80;;;;;9.05;79.82;100257.63;5094818;28;8810;-62
2023/04/16 05:36:38;;;;;;;;;27.60;24.60;;;;;9.06;79.90;100259.34;5095139;28;8822;-62
2023/04/16 05:39:06;;;;;;;;;32.20;28.00;;;;;9.07;80.25;100265.47;5094867;28;9529;-63
2023/04/16 05:41:34;;;;;;;;;30.00;27.80;;;;;9.08;80.22;100273.34;5094921;28;8842;-62
2023/04/16 05:44:01;;;;;;;;;29.80;26.20;;;;;9.09;80.28;100266.22;5095498;28;8830;-62
2023/04/16 05:46:30;;;;;;;;;30.20;28.80;;;;;9.09;80.10;100275.06;5098363;28;8810;-61
2023/04/16 05:48:57;;;;;;;;;29.00;24.00;;;;;9.11;80.01;100273.13;5097604;28;8972;-62
2023/04/16 05:51:26;;;;;;;;;35.20;28.80;;;;;9.11;80.30;100277.63;5097951;28;8826;-62
2023/04/16 05:53:54;;;;;;;;;32.60;26.20;;;;;9.12;80.42;100282.81;5097769;28;8886;-62
2023/04/16 05:56:22;;;;;;;;;27.40;22.80;;;;;9.13;80.24;100287.16;5098177;28;8834;-61
2023/04/16 05:58:50;;;;;;;;;19.80;18.80;;;;;9.14;80.12;100288.03;5097514;28;8825;-62
2023/04/16 06:01:17;;;;;;;;;32.40;26.20;;;;;9.15;79.91;100285.28;5098314;28;8880;-62
2023/04/16 06:03:45;;;;;;;;;28.80;25.80;;;;;9.16;80.33;100291.41;5097881;28;8818;-62
2023/04/16 06:06:13;;;;;;;;;28.20;26.40;;;;;9.18;79.97;100294.84;5098381;28;8837;-62
2023/04/16 06:08:41;;;;;;;;;18.00;15.80;;;;;9.18;80.43;100294.84;5098593;28;8826;-62
2023/04/16 06:11:09;;;;;;;;;30.20;27.80;;;;;9.18;79.91;100294.84;5098334;28;8817;-62
2023/04/16 06:13:36;;;;;;;;;31.40;28.00;;;;;9.17;79.78;100296.63;5098243;28;8830;-62
2023/04/16 06:16:04;;;;;;;;;20.20;19.00;;;;;9.18;80.14;100306.31;5098177;28;8819;-61
2023/04/16 06:18:32;;;;;;;;;31.00;26.00;;;;;9.19;79.90;100301.84;5098205;28;8806;-62
2023/04/16 06:20:59;;;;;;;;;10.00;8.20;;;;;9.21;79.56;100310.56;5098453;28;8840;-62
2023/04/16 06:23:27;;;;;;;;;18.20;14.60;;;;;9.21;79.95;100313.22;5098150;28;8850;-60
2023/04/16 06:25:55;;;;;;;;;12.40;10.80;;;;;9.23;80.10;100313.97;5098364;28;8830;-62
2023/04/16 06:28:23;;;;;;;;;24.40;21.80;;;;;9.26;79.93;100314.59;5097864;28;8853;-62
2023/04/16 06:30:50;;;;;;;;;27.80;24.00;;;;;9.29;79.59;100314.41;5097826;28;8839;-62
2023/04/16 06:33:18;;;;;;;;;29.60;24.20;;;;;9.32;79.35;100313.31;5096243;28;8822;-62
2023/04/16 06:35:46;;;;;;;;;16.40;15.40;;;;;9.35;79.88;100313.13;5096683;28;8826;-60
2023/04/16 06:38:13;;;;;;;;;32.00;30.40;;;;;9.35;79.51;100319.28;5096503;28;8850;-59
2023/04/16 06:40:41;;;;;;;;;23.40;23.20;;;;;9.37;79.30;100320.03;5097081;28;8861;-62
2023/04/16 06:43:08;;;;;;;;;24.80;22.80;;;;;9.38;79.44;100318.22;5097809;28;8822;-60
2023/04/16 06:45:36;;;;;;;;;25.40;22.00;;;;;9.40;79.95;100324.28;5096955;28;8860;-59
2023/04/16 06:48:04;;;;;;;;;23.20;21.20;;;;;9.42;79.38;100325.03;5097712;28;8857;-60
2023/04/16 06:50:32;;;;;;;;;21.60;16.40;;;;;9.44;79.66;100328.44;5097564;28;8834;-62
2023/04/16 06:53:00;;;;;;;;;24.80;21.00;;;;;9.45;79.50;100325.69;5097246;28;8894;-62
2023/04/16 06:55:27;;;;;;;;;23.20;21.40;;;;;9.47;79.86;100326.41;5097270;28;8824;-59
2023/04/16 06:57:55;;;;;;;;;18.00;15.80;;;;;9.49;79.74;100336.97;5096076;28;8830;-62
2023/04/16 07:00:23;;;;;;;;;23.80;23.00;;;;;9.49;79.43;100332.47;5096057;28;8857;-62
2023/04/16 07:02:50;;;;;;;;;29.80;26.20;;;;;9.51;79.24;100333.25;5096209;28;8829;-60
2023/04/16 07:05:18;;;;;;;;;19.00;16.40;;;;;9.51;79.10;100341.22;5095838;28;8810;-60
2023/04/16 07:07:46;;;;;;;;;26.40;22.20;;;;;9.50;79.25;100336.84;5096676;28;8821;-59
2023/04/16 07:10:15;;;;;;;;;30.40;24.80;;;;;9.49;79.58;100348.44;5096601;28;8824;-60
2023/04/16 07:12:44;;;;;;;;;26.40;24.00;;;;;9.48;79.67;100341.41;5096404;28;8814;-60
2023/04/16 07:15:11;;;;;;;;;24.00;23.20;;;;;9.47;79.73;100345.03;5096958;28;8814;-61
2023/04/16 07:17:39;;;;;;;;;23.60;20.20;;;;;9.46;79.68;100346.00;5096900;28;8826;-62
2023/04/16 07:20:07;;;;;;;;;24.40;23.60;;;;;9.47;79.69;100345.03;5097116;28;8843;-62
2023/04/16 07:22:34;;;;;;;;;27.20;22.80;;;;;9.48;79.33;100346.72;5097262;28;8907;-61
2023/04/16 07:25:02;;;;;;;;;31.20;25.00;;;;;9.50;79.33;100347.47;5096895;28;8842;-62
2023/04/16 07:27:30;;;;;;;;;28.80;22.40;;;;;9.52;79.48;100348.22;5096599;28;8814;-61
2023/04/16 07:29:58;;;;;;;;;23.60;21.40;;;;;9.53;79.54;100355.25;5096788;28;9583;-62
2023/04/16 07:32:25;;;;;;;;;29.80;26.80;;;;;9.56;79.17;100354.19;5097236;28;8956;-62
2023/04/16 07:34:55;;;;;;;;;29.80;25.80;;;;;9.58;79.56;100358.41;5096798;28;8834;-62
2023/04/16 07:37:22;;;;;;;;;23.60;22.00;;;;;9.61;79.05;100352.91;5096884;28;8840;-62
2023/04/16 07:39:50;;;;;;;;;27.40;24.60;;;;;9.64;79.26;100362.50;5096999;28;8836;-62
2023/04/16 07:42:25;;;;;;;;;24.80;19.60;;;;;9.67;79.24;100365.78;5096641;28;8798;-62
2023/04/16 07:44:53;;;;;;;;;25.80;22.20;;;;;9.69;78.94;100361.22;5096845;28;8817;-63
2023/04/16 07:47:21;;;;;;;;;23.00;20.60;;;;;9.70;79.40;100370.88;5096315;28;8852;-62
2023/04/16 07:49:49;;;;;;;;;23.40;20.40;;;;;9.73;78.96;100367.16;5096676;28;8858;-62
2023/04/16 07:52:17;;;;;;;;;28.40;24.80;;;;;9.77;78.79;100369.50;5096163;28;8821;-63
2023/04/16 07:54:45;;;;;;;;;25.40;24.40;;;;;9.81;78.88;100364.81;5095782;28;9555;-62
2023/04/16 07:57:13;;;;;;;;;21.40;18.40;;;;;9.83;78.75;100363.75;5096367;28;8891;-62
2023/04/16 07:59:41;;;;;;;;;25.20;22.40;;;;;9.85;79.13;100375.13;5096302;28;8838;-62
2023/04/16 08:02:09;;;;;;;;;24.00;22.00;;;;;9.86;79.04;100371.50;5096313;28;8832;-62
2023/04/16 08:04:37;;;;;;;;;29.20;24.80;;;;;9.86;78.83;100374.16;5096467;28;8906;-61
2023/04/16 08:07:05;;;;;;;;;34.40;31.00;;;;;9.86;79.32;100379.50;5095968;28;8829;-62
2023/04/16 08:09:33;;;;;;;;;23.40;19.80;;;;;9.85;79.57;100380.44;5095085;28;8822;-62
2023/04/16 08:12:01;;;;;;;;;30.80;27.60;;;;;9.84;79.39;100381.41;5095716;28;9483;-62
2023/04/16 08:14:29;;;;;;;;;28.00;25.80;;;;;9.83;79.01;100382.38;5096203;28;8826;-60
2023/04/16 08:16:57;;;;;;;;;28.00;25.20;;;;;9.84;79.18;100385.88;5095999;28;8810;-63
2023/04/16 08:19:25;;;;;;;;;24.40;21.80;;;;;9.86;79.24;100390.13;5096416;28;8821;-63
2023/04/16 08:21:53;;;;;;;;;38.00;33.60;;;;;9.88;79.47;100388.22;5095946;28;8830;-62
2023/04/16 08:24:21;;;;;;;;;33.60;28.00;;;;;9.91;79.51;100398.66;5096468;28;9612;-62
2023/04/16 08:26:49;;;;;;;;;29.60;24.20;;;;;9.95;79.36;100402.78;5096041;28;8846;-62
2023/04/16 08:29:17;;;;;;;;;36.60;34.00;;;;;10.00;79.27;100407.78;5095428;28;8806;-62
2023/04/16 08:31:45;;;;;;;;;32.20;29.80;;;;;10.06;79.44;100410.91;5095634;28;8824;-62
2023/04/16 08:34:13;;;;;;;;;22.00;19.40;;;;;10.09;79.33;100410.69;5095838;28;8830;-62
2023/04/16 08:36:41;;;;;;;;;34.20;25.40;;;;;10.15;79.55;100410.25;5095947;28;8964;-63
2023/04/16 08:39:09;;;;;;;;;20.40;19.80;;;;;10.22;79.50;100405.34;5095973;28;8826;-62
2023/04/16 08:41:38;;;;;;;;;27.40;24.60;;;;;10.26;79.50;100406.84;5096124;28;9520;-62
2023/04/16 08:44:05;;;;;;;;;19.20;13.20;;;;;10.27;78.95;100412.06;5095252;28;8899;-62
2023/04/16 08:46:33;;;;;;;;;31.40;29.00;;;;;10.28;79.34;100419.09;5095424;28;8957;-62
2023/04/16 08:49:01;;;;;;;;;31.60;28.40;;;;;10.30;79.47;100417.16;5095662;28;8949;-62
2023/04/16 08:51:30;;;;;;;;;36.20;30.80;;;;;10.33;79.56;100418.78;5095712;28;8834;-62
2023/04/16 08:53:57;;;;;;;;;26.20;19.60;;;;;10.33;79.27;100421.44;5095004;28;8802;-62
2023/04/16 08:56:25;;;;;;;;;29.00;24.50;;;;;10.35;79.85;100423.03;5095226;28;8852;-62
2023/04/16 08:58:53;;;;;;;;;24.60;22.20;;;;;10.41;79.34;100429.72;5095627;28;9472;-60
2023/04/16 09:01:21;;;;;;;;;28.80;27.40;;;;;10.45;79.28;100426.72;5094978;28;8826;-63
2023/04/16 09:03:49;;;;;;;;;34.40;28.20;;;;;10.52;79.01;100437.78;5095636;28;8826;-62
2023/04/16 09:06:17;;;;;;;;;29.60;24.80;;;;;10.59;79.06;100431.91;5095217;28;8929;-63
2023/04/16 09:08:45;;;;;;;;;27.40;24.40;;;;;10.61;78.44;100427.31;5095106;28;8826;-62
2023/04/16 09:11:13;;;;;;;;;31.60;31.60;;;;;10.60;78.69;100430.97;5094232;28;8871;-61
2023/04/16 09:13:41;;;;;;;;;32.20;25.40;;;;;10.66;78.64;100435.84;5094069;28;8873;-63
2023/04/16 09:16:10;;;;;;;;;28.40;26.60;;;;;10.78;78.42;100440.28;5094239;28;8822;-63
2023/04/16 09:18:37;;;;;;;;;36.40;33.40;;;;;11.00;78.56;100428.91;5094013;28;8898;-59
2023/04/16 09:21:06;;;;;;;;;33.50;32.00;;;;;11.24;77.62;100437.75;5097313;28;8850;-62
2023/04/16 09:23:34;;;;;;;;;30.60;25.40;;;;;11.44;77.46;100432.63;5097638;28;8798;-63
2023/04/16 09:26:03;;;;;;;;;26.50;25.75;;;;;11.63;76.95;100434.78;5098007;28;8850;-63
2023/04/16 09:28:32;;;;;;;;;30.25;28.75;;;;;11.75;76.78;100440.03;5098513;28;8915;-60
2023/04/16 09:30:59;;;;;;;;;17.00;13.00;;;;;11.83;76.68;100448.31;5098457;28;8815;-59
2023/04/16 09:33:27;;;;;;;;;38.25;33.50;;;;;11.88;76.65;100450.63;5098610;28;8822;-62
2023/04/16 09:35:55;;;;;;;;;34.00;31.25;;;;;11.84;76.66;100454.50;5097597;28;8948;-61
2023/04/16 09:38:25;;;;;;;;;19.25;17.75;;;;;11.80;76.87;100453.88;5096838;28;8910;-60
2023/04/16 09:40:53;;;;;;;;;34.75;30.50;;;;;11.74;77.01;100454.34;5096707;28;8833;-62
2023/04/16 09:43:21;;;;;;;;;39.50;32.00;;;;;11.71;76.54;100470.59;5096548;28;8830;-61
2023/04/16 09:45:49;;;;;;;;;31.25;28.00;;;;;11.70;77.04;100462.69;5097368;28;8806;-63
2023/04/16 09:48:18;;;;;;;;;28.00;25.25;;;;;11.67;77.20;100465.63;5097339;28;8868;-62
2023/04/16 09:50:46;;;;;;;;;36.75;32.75;;;;;11.63;77.41;100461.47;5097996;28;8829;-62
2023/04/16 09:53:14;;;;;;;;;27.50;26.50;;;;;11.57;77.15;100465.41;5098104;28;8840;-62
2023/04/16 09:55:42;;;;;;;;;26.50;24.75;;;;;11.55;77.13;100469.16;5098156;28;8836;-60
2023/04/16 09:58:13;;;;;;;;;22.75;21.50;;;;;11.55;77.63;100467.34;5098176;28;8854;-62
2023/04/16 10:00:41;;;;;;;;;26.50;24.75;;;;;11.60;77.60;100472.38;5097910;28;9000;-62
2023/04/16 10:03:10;;;;;;;;;31.25;27.50;;;;;11.60;77.54;100470.53;5098013;28;8814;-63
2023/04/16 10:05:38;;;;;;;;;31.00;28.50;;;;;11.55;77.29;100470.03;5097484;28;8960;-63
2023/04/16 10:08:06;;;;;;;;;29.00;27.00;;;;;11.48;77.20;100476.78;5097510;28;8950;-62
2023/04/16 10:10:34;;;;;;;;;32.25;28.50;;;;;11.44;77.61;100477.13;5097753;28;8845;-62
2023/04/16 10:13:02;;;;;;;;;36.25;27.00;;;;;11.40;77.62;100484.50;5097121;28;8937;-62
2023/04/16 10:15:31;;;;;;;;;29.00;26.50;;;;;11.38;77.46;100493.56;5097802;28;8817;-62
2023/04/16 10:17:59;;;;;;;;;24.00;19.00;;;;;11.41;77.40;100477.34;5097796;28;8814;-61
2023/04/16 10:20:27;;;;;;;;;35.75;30.50;;;;;11.50;77.40;100488.19;5097407;28;8961;-61
2023/04/16 10:22:55;;;;;;;;;27.75;25.00;;;;;11.62;76.82;100479.31;5097148;28;9472;-59
2023/04/16 10:25:23;;;;;;;;;37.75;30.75;;;;;11.74;76.71;100478.34;5097404;28;9475;-60
2023/04/16 10:27:51;;;;;;;;;15.50;14.25;;;;;11.89;76.61;100485.19;5097076;28;8825;-59
2023/04/16 10:30:20;;;;;;;;;29.25;26.00;;;;;11.95;76.23;100488.22;5097898;28;8988;-60
2023/04/16 10:32:48;;;;;;;;;24.00;22.00;;;;;11.94;76.41;100488.38;5096308;28;8835;-60
2023/04/16 10:35:16;;;;;;;;;29.00;23.00;;;;;12.04;76.01;100489.38;5097092;28;8810;-60
2023/04/16 10:37:46;;;;;;;;;31.00;25.75;;;;;12.15;75.42;100487.56;5097309;28;8822;-61
2023/04/16 10:40:14;;;;;;;;;30.50;25.00;;;;;12.26;75.52;100484.06;5097566;28;8826;-61
2023/04/16 10:42:42;;;;;;;;;29.50;27.00;;;;;12.38;75.29;100475.09;5097363;28;8861;-60
2023/04/16 10:45:10;;;;;;;;;28.50;27.75;;;;;12.52;75.17;100483.72;5098350;28;8968;-62
2023/04/16 10:47:38;;;;;;;;;18.50;16.50;;;;;12.72;74.65;100480.34;5097642;28;8834;-62
2023/04/16 10:50:06;;;;;;;;;29.00;28.00;;;;;13.04;74.35;100467.06;5097101;28;8829;-63
2023/04/16 10:52:35;;;;;;;;;26.25;25.00;;;;;13.35;73.19;100476.97;5097086;28;8956;-61
2023/04/16 10:55:03;;;;;;;;;20.50;18.75;;;;;13.71;72.49;100471.22;5097015;28;8826;-62
2023/04/16 10:57:31;;;;;;;;;29.50;28.25;;;;;14.03;71.90;100464.84;5096828;28;8814;-61
2023/04/16 10:59:59;;;;;;;;;30.00;26.00;;;;;14.13;71.57;100471.09;5096783;28;8984;-62
2023/04/16 11:02:27;;;;;;;;;28.25;26.50;;;;;14.11;71.67;100472.22;5096981;28;8826;-60
2023/04/16 11:04:55;;;;;;;;;23.00;20.00;;;;;13.89;71.93;100473.19;5096374;28;8830;-61
2023/04/16 11:07:24;;;;;;;;;32.75;28.50;;;;;13.66;72.73;100471.59;5095650;28;8810;-61
2023/04/16 11:09:52;;;;;;;;;34.25;31.00;;;;;13.59;72.80;100467.72;5096440;28;8854;-60
2023/04/16 11:12:20;;;;;;;;;34.50;31.00;;;;;13.62;73.07;100466.63;5096369;28;8842;-59
2023/04/16 11:14:48;;;;;;;;;33.00;29.50;;;;;13.73;73.31;100467.44;5095426;28;9775;-61
2023/04/16 11:17:17;;;;;;;;;27.50;23.00;;;;;13.91;72.64;100465.91;5095406;28;8918;-60
2023/04/16 11:19:45;;;;;;;;;29.50;27.25;;;;;14.11;72.00;100456.16;5095193;28;8826;-60
2023/04/16 11:22:15;;;;;;;;;26.00;23.00;;;;;14.17;71.54;100459.16;5095736;28;9048;-60
2023/04/16 11:24:43;;;;;;;;;30.75;29.00;;;;;14.09;71.80;100463.44;5096110;28;8826;-61
2023/04/16 11:27:11;;;;;;;;;26.00;24.50;;;;;13.91;72.66;100460.53;5096125;28;8818;-60